createdAt,value
2019-02-11T00:04:00.652Z,3
2019-02-11T00:14:03.360Z,4
2019-02-11T00:24:10.847Z,3
2019-02-11T00:34:18.221Z,3
2019-02-11T00:44:25.674Z,4
2019-02-11T00:54:32.227Z,4
2019-02-11T01:04:38.941Z,3
2019-02-11T01:14:47.066Z,3
2019-02-11T01:24:54.982Z,4
2019-02-11T01:35:01.764Z,4
2019-02-11T01:45:10.284Z,3
2019-02-11T01:55:18.099Z,3
2019-02-11T02:05:23.713Z,2
2019-02-11T02:15:31.691Z,3
2019-02-11T02:25:40.648Z,4
2019-02-11T02:35:51.018Z,3
2019-02-11T02:45:58.861Z,4
2019-02-11T02:56:04.069Z,4
2019-02-11T03:06:14.700Z,3
2019-02-11T03:16:19.986Z,3
2019-02-11T03:26:29.921Z,3
2019-02-11T03:36:37.159Z,4
2019-02-11T03:44:54.858Z,3
2019-02-11T03:55:01.659Z,5
2019-02-11T04:05:09.796Z,3
2019-02-11T04:15:17.235Z,5
2019-02-11T04:25:26.163Z,5
2019-02-11T04:35:33.846Z,4
2019-02-11T04:45:41.102Z,3
2019-02-11T04:55:49.727Z,6
2019-02-11T05:05:56.278Z,3
2019-02-11T05:15:17.471Z,4
2019-02-11T05:25:24.801Z,6
2019-02-11T05:35:33.884Z,7
2019-02-11T05:45:41.059Z,6
2019-02-11T05:55:49.256Z,4
2019-02-11T06:05:58.097Z,4
2019-02-11T06:16:06.919Z,4
2019-02-11T06:26:16.953Z,3
2019-02-11T06:36:22.540Z,4
2019-02-11T06:46:30.171Z,5
2019-02-11T06:56:36.968Z,5
2019-02-11T07:06:49.693Z,10
2019-02-11T07:16:56.242Z,5
2019-02-11T07:18:08.984Z,5
2019-02-11T07:28:19.422Z,7
2019-02-11T07:38:28.794Z,5
2019-02-11T07:48:38.146Z,5
2019-02-11T07:58:49.616Z,7
2019-02-11T08:08:58.172Z,5
2019-02-11T08:16:13.792Z,5
2019-02-11T08:19:32.952Z,6
2019-02-11T08:25:48.610Z,6
2019-02-11T08:35:59.756Z,4
2019-02-11T08:46:36.695Z,5
2019-02-11T08:48:50.840Z,4
2019-02-11T08:50:27.652Z,6
2019-02-11T09:02:02.785Z,4
2019-02-11T09:03:28.015Z,5
2019-02-11T09:06:40.537Z,6
2019-02-11T09:08:57.400Z,5
2019-02-11T09:19:02.795Z,4
2019-02-11T09:25:32.497Z,5
2019-02-11T09:35:38.322Z,4
2019-02-11T09:36:53.267Z,5
2019-02-11T09:38:18.121Z,4
2019-02-11T09:45:37.876Z,4
2019-02-11T09:55:46.174Z,3
2019-02-11T10:02:31.055Z,5
2019-02-11T10:06:55.923Z,5
2019-02-11T10:17:00.146Z,5
2019-02-11T10:27:11.852Z,5
2019-02-11T10:27:56.995Z,6
2019-02-11T10:31:16.396Z,5
2019-02-11T10:41:20.130Z,6
2019-02-11T10:51:30.010Z,7
2019-02-11T11:01:36.678Z,5
2019-02-11T11:05:09.122Z,5
2019-02-11T11:15:14.345Z,7
2019-02-11T11:25:21.794Z,5
2019-02-11T11:27:40.141Z,6
2019-02-11T11:28:50.509Z,5
2019-02-11T11:33:07.752Z,7
2019-02-11T11:42:36.814Z,6
2019-02-11T11:47:48.374Z,5
2019-02-11T11:58:00.006Z,8
2019-02-11T12:06:24.492Z,6
2019-02-11T12:15:45.147Z,6
2019-02-11T12:17:43.912Z,7
2019-02-11T12:24:44.742Z,6
2019-02-11T12:32:13.909Z,6
2019-02-11T12:34:23.388Z,6
2019-02-11T12:37:50.505Z,6
2019-02-11T12:40:03.163Z,6
2019-02-11T12:47:21.991Z,5
2019-02-11T12:56:44.248Z,6
2019-02-11T13:00:59.953Z,8
2019-02-11T13:06:31.151Z,6
2019-02-11T13:13:48.768Z,7
2019-02-11T13:16:40.734Z,6
2019-02-11T13:18:18.492Z,5
2019-02-11T13:19:30.348Z,5
2019-02-11T13:22:44.631Z,5
2019-02-11T13:32:52.650Z,4
2019-02-11T13:40:12.484Z,6
2019-02-11T13:51:23.953Z,5
2019-02-11T14:01:31.910Z,6
2019-02-11T14:04:00.815Z,6
2019-02-11T14:05:12.708Z,6
2019-02-11T14:14:46.340Z,6
2019-02-11T14:15:59.098Z,6
2019-02-11T14:18:16.905Z,6
2019-02-11T14:23:31.089Z,7
2019-02-11T14:33:39.692Z,6
2019-02-11T14:34:52.742Z,6
2019-02-11T14:36:55.585Z,5
2019-02-11T14:39:32.336Z,8
2019-02-11T14:49:07.071Z,5
2019-02-11T14:59:15.378Z,5
2019-02-11T15:02:33.593Z,6
2019-02-11T15:12:38.647Z,4
2019-02-11T15:21:14.297Z,4
2019-02-11T15:31:20.849Z,4
2019-02-11T15:34:37.413Z,6
2019-02-11T15:44:39.584Z,5
2019-02-11T15:46:57.569Z,6
2019-02-11T15:57:00.566Z,5
2019-02-11T15:59:18.112Z,9
2019-02-11T16:09:38.254Z,5
2019-02-11T16:19:45.311Z,5
2019-02-11T16:30:33.809Z,7
2019-02-11T16:40:41.104Z,4
2019-02-11T16:50:51.492Z,5
2019-02-11T17:01:00.137Z,6
2019-02-11T17:08:17.761Z,4
2019-02-11T17:16:36.521Z,5
2019-02-11T17:19:48.487Z,7
2019-02-11T17:21:05.791Z,8
2019-02-11T17:22:28.258Z,5
2019-02-11T17:32:32.981Z,6
2019-02-11T17:42:37.436Z,7
2019-02-11T17:49:54.451Z,6
2019-02-11T18:00:01.447Z,7
2019-02-11T18:10:10.226Z,12
2019-02-11T18:20:20.620Z,7
2019-02-11T18:30:29.748Z,5
2019-02-11T18:34:52.798Z,9
2019-02-11T18:45:10.503Z,6
2019-02-11T18:50:13.458Z,4
2019-02-11T19:00:18.622Z,5
2019-02-11T19:10:28.116Z,4
2019-02-11T19:20:36.712Z,5
2019-02-11T19:30:45.615Z,4
2019-02-11T19:40:52.135Z,6
2019-02-11T19:51:00.906Z,5
2019-02-11T20:01:07.930Z,6
2019-02-11T20:11:14.330Z,4
2019-02-11T20:20:35.740Z,5
2019-02-11T20:30:42.654Z,7
2019-02-11T20:40:50.965Z,6
2019-02-11T20:50:59.170Z,6
2019-02-11T21:01:07.351Z,7
2019-02-11T21:11:14.693Z,6
2019-02-11T21:21:22.170Z,6
2019-02-11T21:31:28.870Z,5
2019-02-11T21:41:35.346Z,6
2019-02-11T21:51:41.397Z,6
2019-02-11T22:01:49.881Z,7
2019-02-11T22:12:00.277Z,7
2019-02-11T22:22:09.321Z,12
2019-02-11T22:32:16.632Z,11
2019-02-11T22:42:23.408Z,12
2019-02-11T22:52:31.488Z,9
2019-02-11T23:02:40.375Z,9
2019-02-11T23:12:47.334Z,10
2019-02-11T23:22:54.668Z,10
2019-02-11T23:33:01.786Z,8
2019-02-11T23:43:09.533Z,10
2019-02-11T23:53:16.369Z,10
